createdAt,value
2023-04-18T00:01:22.366Z,20.43
2023-04-18T00:04:11.552Z,20.43
2023-04-18T00:07:02.085Z,25.27
2023-04-18T00:09:51.254Z,22.30
2023-04-18T00:12:40.496Z,21.17
2023-04-18T00:15:30.549Z,21.33
2023-04-18T00:18:19.496Z,20.93
2023-04-18T00:21:08.586Z,22.13
2023-04-18T00:23:59.071Z,22.00
2023-04-18T00:26:48.918Z,20.77
2023-04-18T00:29:37.733Z,20.53
2023-04-18T00:32:26.748Z,27.97
2023-04-18T00:35:15.871Z,23.80
2023-04-18T00:38:04.690Z,26.27
2023-04-18T00:40:54.857Z,24.30
2023-04-18T00:43:43.782Z,24.63
2023-04-18T00:46:32.755Z,23.80
2023-04-18T00:49:22.959Z,22.60
2023-04-18T00:52:13.243Z,23.23
2023-04-18T00:55:03.836Z,26.33
2023-04-18T00:57:54.425Z,22.67
2023-04-18T01:00:43.628Z,24.50
2023-04-18T01:03:34.839Z,26.70
2023-04-18T01:06:24.513Z,22.80
2023-04-18T01:09:14.736Z,23.47
2023-04-18T01:12:04.267Z,28.90
2023-04-18T01:14:54.682Z,25.67
2023-04-18T01:17:43.650Z,22.33
2023-04-18T01:20:32.671Z,23.80
2023-04-18T01:23:22.384Z,25.47
2023-04-18T01:26:13.217Z,23.37
2023-04-18T01:29:02.227Z,29.80
2023-04-18T01:31:52.349Z,27.13
2023-04-18T01:34:41.514Z,29.10
2023-04-18T01:37:32.459Z,27.93
2023-04-18T01:40:22.855Z,27.73
2023-04-18T01:43:13.466Z,29.07
2023-04-18T01:46:02.452Z,29.90
2023-04-18T01:48:51.345Z,35.17
2023-04-18T01:51:43.167Z,32.60
2023-04-18T01:54:32.088Z,29.77
2023-04-18T01:57:20.953Z,27.00
2023-04-18T02:00:14.616Z,26.73
2023-04-18T02:03:04.212Z,31.07
2023-04-18T02:05:53.931Z,29.43
2023-04-18T02:08:42.715Z,31.37
2023-04-18T02:11:31.697Z,32.30
2023-04-18T02:14:20.499Z,34.00
2023-04-18T02:17:10.685Z,27.60
2023-04-18T02:20:00.110Z,28.50
2023-04-18T02:22:49.462Z,29.93
2023-04-18T02:25:38.322Z,36.27
2023-04-18T02:28:27.252Z,31.67
2023-04-18T02:31:17.072Z,30.87
2023-04-18T02:34:07.830Z,33.23
2023-04-18T02:36:56.754Z,33.13
2023-04-18T02:39:45.832Z,32.77
2023-04-18T02:42:34.922Z,34.93
2023-04-18T02:45:23.782Z,32.67
2023-04-18T02:48:12.782Z,31.67
2023-04-18T02:51:05.421Z,35.70
2023-04-18T02:53:57.097Z,30.70
2023-04-18T02:56:48.768Z,34.50
2023-04-18T02:59:45.132Z,26.43
2023-04-18T03:02:54.180Z,36.03
2023-04-18T03:06:07.927Z,36.30
2023-04-18T03:08:57.520Z,32.77
2023-04-18T03:11:47.646Z,37.87
2023-04-18T03:14:37.966Z,34.87
2023-04-18T03:17:27.760Z,33.70
2023-04-18T03:20:17.068Z,30.00
2023-04-18T03:23:07.211Z,33.13
2023-04-18T03:25:57.203Z,34.23
2023-04-18T03:28:46.442Z,34.70
2023-04-18T03:31:35.788Z,30.23
2023-04-18T03:34:24.624Z,31.23
2023-04-18T03:37:15.056Z,30.43
2023-04-18T03:40:13.138Z,40.13
2023-04-18T03:43:03.450Z,32.40
2023-04-18T03:45:53.784Z,35.90
2023-04-18T03:48:42.983Z,36.37
2023-04-18T03:51:43.223Z,35.93
2023-04-18T03:54:32.234Z,33.63
2023-04-18T03:57:22.464Z,42.57
2023-04-18T04:00:14.127Z,34.17
2023-04-18T04:03:06.964Z,35.13
2023-04-18T04:05:56.837Z,41.17
2023-04-18T04:08:46.020Z,33.57
2023-04-18T04:11:37.172Z,45.77
2023-04-18T04:14:30.119Z,41.80
2023-04-18T04:17:19.051Z,41.53
2023-04-18T04:20:09.782Z,40.60
2023-04-18T04:22:59.988Z,37.10
2023-04-18T04:25:49.798Z,39.30
2023-04-18T04:28:55.916Z,41.73
2023-04-18T04:31:48.505Z,38.60
2023-04-18T04:34:46.802Z,36.73
2023-04-18T04:37:35.947Z,39.63
2023-04-18T04:40:35.004Z,32.70
2023-04-18T04:43:31.507Z,43.13
2023-04-18T04:46:20.919Z,37.07
2023-04-18T04:49:13.352Z,37.30
2023-04-18T04:52:02.870Z,44.43
2023-04-18T04:54:53.061Z,37.50
2023-04-18T04:57:44.780Z,38.90
2023-04-18T05:00:54.047Z,42.37
2023-04-18T05:03:43.477Z,40.57
2023-04-18T05:06:34.599Z,44.70
2023-04-18T05:09:23.560Z,39.40
2023-04-18T05:12:12.480Z,37.40
2023-04-18T05:15:01.465Z,40.63
2023-04-18T05:17:50.623Z,39.83
2023-04-18T05:20:40.146Z,41.17
2023-04-18T05:23:30.577Z,44.43
2023-04-18T05:26:19.757Z,47.07
2023-04-18T05:29:11.367Z,43.00
2023-04-18T05:32:00.462Z,42.50
2023-04-18T05:34:53.160Z,48.40
2023-04-18T05:37:42.902Z,40.40
2023-04-18T05:40:33.247Z,36.47
2023-04-18T05:43:23.330Z,38.87
2023-04-18T05:46:13.352Z,33.80
2023-04-18T05:49:03.428Z,34.63
2023-04-18T05:51:53.207Z,44.40
2023-04-18T05:54:42.219Z,41.33
2023-04-18T05:57:33.206Z,44.77
2023-04-18T06:00:23.340Z,33.47
2023-04-18T06:03:12.457Z,34.10
2023-04-18T06:06:01.637Z,42.73
2023-04-18T06:08:51.913Z,40.70
2023-04-18T06:11:40.817Z,46.23
2023-04-18T06:14:31.226Z,36.13
2023-04-18T06:17:21.357Z,36.07
2023-04-18T06:20:11.872Z,35.93
2023-04-18T06:23:05.005Z,37.23
2023-04-18T06:25:53.987Z,38.70
2023-04-18T06:28:42.993Z,39.30
2023-04-18T06:31:33.500Z,40.47
2023-04-18T06:34:22.444Z,43.17
2023-04-18T06:37:12.117Z,36.37
2023-04-18T06:40:01.008Z,33.43
2023-04-18T06:42:50.258Z,36.23
2023-04-18T06:45:40.071Z,40.07
2023-04-18T06:48:31.427Z,39.53
2023-04-18T06:51:21.013Z,33.30
2023-04-18T06:54:09.936Z,34.90
2023-04-18T06:56:59.208Z,38.37
2023-04-18T06:59:49.044Z,41.07
2023-04-18T07:02:40.020Z,35.17
2023-04-18T07:05:31.330Z,35.00
2023-04-18T07:08:20.873Z,34.13
2023-04-18T07:11:10.076Z,38.13
2023-04-18T07:13:59.482Z,38.00
2023-04-18T07:16:49.373Z,36.80
2023-04-18T07:19:39.334Z,38.03
2023-04-18T07:22:29.516Z,33.70
2023-04-18T07:25:19.241Z,29.40
2023-04-18T07:28:09.276Z,29.90
2023-04-18T07:30:58.250Z,31.20
2023-04-18T07:33:49.005Z,34.20
2023-04-18T07:36:39.155Z,34.30
2023-04-18T07:39:29.480Z,38.03
2023-04-18T07:42:18.542Z,31.17
2023-04-18T07:45:08.778Z,30.17
2023-04-18T07:47:57.663Z,29.50
2023-04-18T07:50:46.969Z,32.50
2023-04-18T07:53:35.890Z,32.13
2023-04-18T07:56:26.426Z,33.60
2023-04-18T07:59:17.066Z,32.07
2023-04-18T08:02:07.357Z,30.33
2023-04-18T08:04:56.527Z,27.83
2023-04-18T08:07:47.162Z,26.20
2023-04-18T08:10:36.865Z,28.23
2023-04-18T08:13:27.190Z,32.10
2023-04-18T08:16:17.452Z,28.03
2023-04-18T08:19:07.036Z,33.50
2023-04-18T08:21:56.004Z,30.97
2023-04-18T08:25:01.043Z,26.27
2023-04-18T08:27:53.086Z,24.63
2023-04-18T08:30:44.085Z,30.97
2023-04-18T08:33:33.118Z,27.40
2023-04-18T08:36:22.572Z,29.10
2023-04-18T08:39:15.642Z,24.30
2023-04-18T08:42:07.441Z,31.70
2023-04-18T08:44:57.976Z,26.93
2023-04-18T08:47:48.452Z,26.60
2023-04-18T08:50:37.484Z,27.23
2023-04-18T08:53:29.369Z,29.63
2023-04-18T08:56:22.349Z,29.97
2023-04-18T08:59:11.610Z,27.73
2023-04-18T09:02:01.625Z,29.20
2023-04-18T09:04:53.597Z,26.57
2023-04-18T09:07:43.665Z,27.90
2023-04-18T09:10:36.568Z,26.80
2023-04-18T09:13:41.099Z,26.30
2023-04-18T09:16:46.747Z,33.70
2023-04-18T09:19:36.024Z,28.13
2023-04-18T09:22:27.183Z,25.50
2023-04-18T09:25:27.503Z,29.27
2023-04-18T09:28:26.953Z,25.27
2023-04-18T09:31:17.653Z,28.13
2023-04-18T09:34:06.973Z,25.50
2023-04-18T09:37:10.743Z,23.17
2023-04-18T09:40:01.294Z,27.93
2023-04-18T09:42:53.116Z,24.20
2023-04-18T09:45:43.441Z,24.97
2023-04-18T09:48:33.386Z,24.70
2023-04-18T09:51:23.128Z,25.13
2023-04-18T09:54:16.773Z,38.57
2023-04-18T09:57:13.569Z,26.37
2023-04-18T10:00:17.518Z,26.67
2023-04-18T10:03:09.819Z,27.17
2023-04-18T10:05:59.114Z,25.07
2023-04-18T10:08:49.997Z,25.33
2023-04-18T10:11:39.527Z,22.90
2023-04-18T10:14:32.939Z,30.20
2023-04-18T10:17:22.508Z,23.73
2023-04-18T10:20:21.157Z,23.20
2023-04-18T10:23:38.649Z,22.03
2023-04-18T10:26:50.272Z,23.07
2023-04-18T10:29:51.881Z,22.83
2023-04-18T10:32:42.643Z,23.53
2023-04-18T10:35:31.680Z,20.57
2023-04-18T10:38:25.431Z,23.07
2023-04-18T10:41:27.104Z,24.80
2023-04-18T10:44:23.350Z,20.20
2023-04-18T10:47:23.614Z,21.77
2023-04-18T10:50:14.059Z,21.67
2023-04-18T10:53:03.337Z,21.03
2023-04-18T10:55:58.246Z,19.07
2023-04-18T10:58:52.971Z,21.07
2023-04-18T11:01:47.591Z,24.63
2023-04-18T11:04:44.676Z,20.17
2023-04-18T11:07:36.081Z,18.50
2023-04-18T11:10:27.121Z,19.90
2023-04-18T11:13:17.130Z,15.57
2023-04-18T11:16:06.649Z,18.13
2023-04-18T11:18:55.989Z,18.43
2023-04-18T11:21:46.465Z,22.00
2023-04-18T11:24:35.751Z,20.43
2023-04-18T11:27:27.024Z,19.57
2023-04-18T11:30:17.174Z,22.63
2023-04-18T11:33:08.898Z,18.07
2023-04-18T11:35:59.830Z,21.67
2023-04-18T11:38:51.735Z,22.40
2023-04-18T11:41:44.286Z,17.27
2023-04-18T11:44:36.060Z,20.40
2023-04-18T11:47:27.034Z,20.53
2023-04-18T11:50:16.605Z,16.80
2023-04-18T11:53:06.266Z,19.70
2023-04-18T11:55:58.516Z,16.90
2023-04-18T11:58:48.383Z,20.20
2023-04-18T12:01:38.383Z,18.97
2023-04-18T12:04:27.793Z,17.60
2023-04-18T12:07:32.889Z,17.47
2023-04-18T12:10:29.869Z,20.33
2023-04-18T12:13:26.997Z,15.93
2023-04-18T12:16:16.106Z,15.80
2023-04-18T12:19:05.955Z,16.73
2023-04-18T12:22:01.512Z,18.07
2023-04-18T12:25:27.820Z,15.57
2023-04-18T12:28:18.641Z,13.67
2023-04-18T12:31:08.965Z,14.97
2023-04-18T12:34:00.112Z,18.20
2023-04-18T12:36:49.405Z,14.63
2023-04-18T12:39:39.290Z,13.70
2023-04-18T12:42:28.207Z,15.67
2023-04-18T12:45:18.561Z,14.57
2023-04-18T12:48:11.848Z,16.50
2023-04-18T12:51:01.562Z,14.10
2023-04-18T12:53:50.661Z,18.13
2023-04-18T12:56:40.892Z,12.90
2023-04-18T12:59:30.186Z,15.13
2023-04-18T13:02:19.347Z,16.07
2023-04-18T13:05:12.769Z,15.73
2023-04-18T13:10:53.845Z,16.90
2023-04-18T13:13:42.661Z,14.60
2023-04-18T13:16:31.796Z,15.40
2023-04-18T13:19:20.689Z,14.37
2023-04-18T13:22:10.934Z,15.63
2023-04-18T13:25:00.615Z,13.87
2023-04-18T13:27:50.351Z,25.60
2023-04-18T13:30:39.312Z,15.23
2023-04-18T13:33:29.065Z,13.27
2023-04-18T13:36:18.846Z,13.03
2023-04-18T13:39:09.623Z,13.10
2023-04-18T13:41:58.589Z,12.73
2023-04-18T13:44:48.472Z,11.80
2023-04-18T13:47:37.572Z,11.53
2023-04-18T13:50:26.542Z,12.70
2023-04-18T13:53:16.249Z,12.47
2023-04-18T13:56:07.540Z,11.43
2023-04-18T13:58:56.816Z,12.97
2023-04-18T14:01:46.574Z,11.87
2023-04-18T14:04:36.584Z,13.73
2023-04-18T14:07:26.393Z,12.70
2023-04-18T14:10:15.710Z,15.50
2023-04-18T14:13:06.234Z,13.13
2023-04-18T14:15:55.445Z,12.83
2023-04-18T14:18:44.420Z,14.70
2023-04-18T14:21:33.512Z,14.63
2023-04-18T14:24:23.416Z,16.63
2023-04-18T14:27:13.389Z,15.80
2023-04-18T14:30:04.313Z,12.17
2023-04-18T14:32:53.269Z,14.47
2023-04-18T14:35:42.645Z,13.60
2023-04-18T14:38:31.625Z,14.10
2023-04-18T14:41:21.086Z,14.90
2023-04-18T14:44:10.736Z,11.87
2023-04-18T14:47:05.629Z,14.27
2023-04-18T14:49:54.536Z,12.30
2023-04-18T14:52:43.684Z,11.10
2023-04-18T14:55:34.448Z,12.87
2023-04-18T14:58:23.468Z,11.93
2023-04-18T15:01:12.510Z,12.13
2023-04-18T15:04:04.932Z,11.60
2023-04-18T15:06:53.995Z,11.00
2023-04-18T15:09:44.475Z,11.93
2023-04-18T15:12:34.685Z,12.80
2023-04-18T15:15:25.151Z,14.60
2023-04-18T15:18:14.687Z,12.63
2023-04-18T15:21:05.380Z,13.87
2023-04-18T15:23:54.356Z,12.53
2023-04-18T15:26:43.830Z,12.80
2023-04-18T15:29:33.600Z,14.00
2023-04-18T15:32:23.163Z,15.50
2023-04-18T15:35:13.729Z,14.53
2023-04-18T15:38:04.217Z,12.37
2023-04-18T15:40:53.448Z,11.83
2023-04-18T15:43:42.930Z,14.03
2023-04-18T15:46:32.766Z,13.00
2023-04-18T15:49:22.042Z,13.70
2023-04-18T15:52:10.948Z,15.30
2023-04-18T15:55:01.769Z,20.17
2023-04-18T15:57:50.814Z,16.90
2023-04-18T16:00:39.958Z,15.77
2023-04-18T16:03:29.019Z,14.83
2023-04-18T16:06:21.299Z,15.07
2023-04-18T16:09:10.154Z,16.70
2023-04-18T16:12:01.545Z,17.53
2023-04-18T16:14:50.648Z,16.80
2023-04-18T16:17:39.826Z,21.00
2023-04-18T16:20:29.125Z,13.57
2023-04-18T16:23:20.251Z,13.50
2023-04-18T16:26:09.682Z,13.80
2023-04-18T16:29:00.127Z,16.20
2023-04-18T16:31:51.559Z,14.50
2023-04-18T16:34:40.799Z,13.43
2023-04-18T16:37:29.752Z,12.20
2023-04-18T16:40:18.663Z,15.63
2023-04-18T16:43:07.600Z,11.40
2023-04-18T16:46:00.784Z,12.37
2023-04-18T16:48:51.122Z,14.90
2023-04-18T16:51:41.346Z,13.97
2023-04-18T16:54:30.622Z,13.43
2023-04-18T16:57:19.577Z,14.97
2023-04-18T17:00:13.469Z,13.23
2023-04-18T17:03:06.819Z,14.40
2023-04-18T17:05:56.069Z,12.37
2023-04-18T17:08:45.786Z,13.70
2023-04-18T17:11:39.576Z,11.43
2023-04-18T17:14:28.943Z,12.60
2023-04-18T17:17:17.867Z,11.73
2023-04-18T17:20:09.968Z,11.70
2023-04-18T17:22:59.409Z,12.97
2023-04-18T17:25:48.461Z,11.07
2023-04-18T17:28:38.866Z,11.50
2023-04-18T17:31:28.513Z,12.27
2023-04-18T17:34:17.552Z,12.87
2023-04-18T17:37:08.229Z,11.30
2023-04-18T17:39:58.350Z,11.30
2023-04-18T17:42:47.309Z,12.53
2023-04-18T17:45:36.350Z,10.70
2023-04-18T17:48:25.894Z,14.00
2023-04-18T17:51:16.274Z,12.90
2023-04-18T17:54:09.666Z,12.00
2023-04-18T17:56:58.763Z,11.63
2023-04-18T17:59:47.928Z,11.60
2023-04-18T18:02:37.194Z,12.67
2023-04-18T18:05:27.613Z,16.13
2023-04-18T18:08:17.167Z,12.67
2023-04-18T18:11:07.772Z,14.13
2023-04-18T18:13:57.461Z,12.17
2023-04-18T18:16:46.772Z,12.80
2023-04-18T18:19:37.150Z,13.87
2023-04-18T18:22:26.275Z,12.93
2023-04-18T18:25:15.457Z,15.63
2023-04-18T18:28:07.187Z,15.90
2023-04-18T18:30:56.217Z,17.50
2023-04-18T18:33:45.370Z,16.50
2023-04-18T18:36:48.153Z,16.07
2023-04-18T18:39:37.741Z,16.50
2023-04-18T18:42:26.799Z,16.30
2023-04-18T18:45:23.921Z,17.30
2023-04-18T18:48:14.762Z,16.60
2023-04-18T18:51:06.745Z,16.30
2023-04-18T18:53:56.780Z,13.90
2023-04-18T18:56:47.884Z,15.23
2023-04-18T18:59:36.888Z,17.67
2023-04-18T19:02:38.187Z,12.53
2023-04-18T19:05:28.087Z,14.87
2023-04-18T19:08:24.896Z,14.00
2023-04-18T19:11:21.045Z,13.47
2023-04-18T19:14:14.384Z,14.00
2023-04-18T19:17:08.656Z,19.23
2023-04-18T19:20:04.426Z,17.20
2023-04-18T19:22:54.428Z,15.53
2023-04-18T19:25:47.380Z,15.67
2023-04-18T19:28:47.995Z,16.38
2023-04-18T19:31:37.744Z,15.47
2023-04-18T19:34:28.744Z,18.57
2023-04-18T19:37:27.102Z,15.07
2023-04-18T19:40:16.260Z,16.37
2023-04-18T19:43:05.340Z,16.57
2023-04-18T19:45:55.369Z,14.40
2023-04-18T19:48:44.858Z,15.70
2023-04-18T19:51:44.843Z,15.73
2023-04-18T19:54:42.180Z,15.07
2023-04-18T19:57:42.156Z,17.83
2023-04-18T20:00:40.968Z,20.83
2023-04-18T20:03:46.130Z,18.50
2023-04-18T20:06:45.686Z,19.53
2023-04-18T20:09:35.106Z,17.83
2023-04-18T20:12:25.689Z,17.10
2023-04-18T20:15:14.850Z,15.83
2023-04-18T20:18:03.863Z,17.37
2023-04-18T20:20:52.862Z,20.40
2023-04-18T20:23:42.727Z,17.33
2023-04-18T20:26:31.620Z,18.10
2023-04-18T20:29:22.062Z,16.60
2023-04-18T20:32:13.076Z,16.57
2023-04-18T20:35:02.828Z,23.60
2023-04-18T20:37:51.691Z,18.20
2023-04-18T20:40:42.720Z,21.77
2023-04-18T20:43:37.297Z,16.63
2023-04-18T20:46:27.664Z,18.73
2023-04-18T20:49:16.790Z,19.03
2023-04-18T20:52:09.710Z,24.67
2023-04-18T20:54:58.728Z,19.87
2023-04-18T20:57:47.865Z,18.33
2023-04-18T21:00:37.182Z,20.20
2023-04-18T21:03:28.424Z,19.13
2023-04-18T21:06:19.071Z,24.90
2023-04-18T21:09:08.449Z,18.60
2023-04-18T21:11:58.443Z,20.83
2023-04-18T21:14:48.065Z,19.70
2023-04-18T21:17:36.845Z,18.50
2023-04-18T21:20:27.311Z,18.10
2023-04-18T21:23:16.174Z,18.50
2023-04-18T21:26:05.079Z,19.00
2023-04-18T21:28:59.464Z,19.10
2023-04-18T21:31:49.328Z,21.03
2023-04-18T21:34:38.342Z,22.90
2023-04-18T21:37:28.948Z,20.07
2023-04-18T21:40:18.232Z,20.07
2023-04-18T21:43:07.145Z,21.63
2023-04-18T21:45:56.658Z,21.53
2023-04-18T21:48:48.559Z,19.07
2023-04-18T21:51:37.603Z,22.73
2023-04-18T21:54:27.900Z,21.57
2023-04-18T21:57:16.921Z,22.13
2023-04-18T22:00:10.263Z,23.17
2023-04-18T22:03:02.041Z,21.57
2023-04-18T22:05:52.223Z,19.23
2023-04-18T22:08:42.096Z,21.13
2023-04-18T22:11:33.377Z,16.37
2023-04-18T22:14:22.589Z,18.60
2023-04-18T22:17:11.486Z,20.00
2023-04-18T22:20:00.341Z,19.87
2023-04-18T22:22:49.562Z,23.67
2023-04-18T22:25:38.581Z,18.33
2023-04-18T22:28:28.970Z,20.60
2023-04-18T22:31:17.866Z,20.30
2023-04-18T22:34:06.807Z,22.17
2023-04-18T22:36:55.778Z,17.23
2023-04-18T22:39:44.686Z,22.93
2023-04-18T22:42:34.855Z,19.13
2023-04-18T22:45:25.908Z,20.60
2023-04-18T22:48:14.842Z,20.93
2023-04-18T22:51:03.751Z,20.57
2023-04-18T22:53:52.581Z,19.27
2023-04-18T22:56:41.809Z,20.37
2023-04-18T22:59:30.681Z,21.47
2023-04-18T23:02:21.069Z,24.03
2023-04-18T23:05:10.816Z,21.10
2023-04-18T23:08:00.704Z,20.57
2023-04-18T23:10:49.911Z,20.40
2023-04-18T23:13:38.721Z,21.00
2023-04-18T23:16:28.161Z,18.40
2023-04-18T23:19:18.500Z,18.23
2023-04-18T23:22:07.303Z,20.43
2023-04-18T23:24:56.756Z,22.67
2023-04-18T23:27:45.641Z,18.27
2023-04-18T23:30:37.788Z,19.40
2023-04-18T23:33:26.605Z,20.00
2023-04-18T23:36:16.803Z,20.70
2023-04-18T23:39:05.722Z,22.30
2023-04-18T23:41:54.724Z,21.03
2023-04-18T23:44:43.605Z,24.13
2023-04-18T23:47:32.632Z,22.73
2023-04-18T23:50:21.488Z,23.70
2023-04-18T23:53:11.823Z,23.73
2023-04-18T23:56:00.678Z,21.43
2023-04-18T23:58:49.870Z,26.47
